Tioga, New York
Current Conditions -  °F | °C
As of 5:53 PM on Tuesday 25 Nov 2014 (Local Time) from KBGM Reporting Station
Clear Clear  
Wind Chill: 36°   Ceiling: Unl
Heat Index: 41°   Visibility: 10mi
Dew Point: 24°   Wind: 7mph
Humidity: 51%   Direction: 230°SW
Pressure: 29.98"   Gusts: NA
Location:  42.0544°N, 76.3493°W
Report Text: KBGM 252253Z 23006KT 10SM CLR 05/M04 A2998 RMK AO2 SLP163 T00501044
Loading
Personal Weather Stations






























Interactive Weather Map New forecast layout! Learn more

10-Day Weather Forecast

Advertisements
Track Severe Weather on mobile